createdAt,value
2019-05-11T08:07:23.846Z,98543.73
2019-05-11T08:09:52.053Z,98543.48
2019-05-11T08:12:20.260Z,98541.32
2019-05-11T08:14:57.766Z,98546.95
2019-05-11T08:17:18.760Z,98550.41
2019-05-11T08:19:47.702Z,98550.55
2019-05-11T08:22:16.004Z,98551.12
2019-05-11T08:24:44.216Z,98559.28
2019-05-11T08:27:12.423Z,98557.88
2019-05-11T08:29:40.632Z,98555.91
2019-05-11T08:32:08.856Z,98559.52
2019-05-11T08:34:37.073Z,98555.16
2019-05-11T08:37:05.302Z,98551.80
2019-05-11T08:39:33.532Z,98559.73
2019-05-11T08:42:03.318Z,98557.72
2019-05-11T08:44:31.734Z,98557.16
2019-05-11T08:46:59.942Z,98559.06
2019-05-11T08:49:28.824Z,98557.02
2019-05-11T08:51:57.990Z,98556.34
2019-05-11T08:54:28.656Z,98560.71
2019-05-11T08:56:58.541Z,98560.77
2019-05-11T08:59:27.857Z,98565.47
2019-05-11T09:01:58.535Z,98555.48
2019-05-11T09:04:28.622Z,98564.14
2019-05-11T09:06:58.445Z,98564.03
2019-05-11T09:09:28.440Z,98573.91
2019-05-11T09:11:55.895Z,98574.07
2019-05-11T09:14:24.113Z,98566.45
2019-05-11T09:16:52.306Z,98573.94
2019-05-11T09:19:20.514Z,98572.62
2019-05-11T09:21:48.716Z,98575.56
2019-05-11T09:24:18.961Z,98574.24
2019-05-11T09:26:47.949Z,98572.85
2019-05-11T09:29:17.942Z,98573.41
2019-05-11T09:31:48.561Z,98577.38
2019-05-11T09:34:18.116Z,98584.11
2019-05-11T09:36:47.955Z,98588.08
2019-05-11T09:39:17.753Z,98593.01
2019-05-11T09:41:46.040Z,98589.52
2019-05-11T09:44:14.261Z,98586.94
2019-05-11T09:46:45.036Z,98586.31
2019-05-11T09:49:13.260Z,98590.27
2019-05-11T09:51:41.762Z,98590.08
2019-05-11T09:54:10.130Z,98590.09
2019-05-11T09:56:40.856Z,98586.45
2019-05-11T09:59:09.091Z,98586.28
2019-05-11T10:01:37.956Z,98598.61
2019-05-11T10:04:08.755Z,98597.06
2019-05-11T10:06:38.828Z,98599.55
2019-05-11T10:09:08.203Z,98598.61
2019-05-11T10:11:36.685Z,98601.72
2019-05-11T10:14:04.998Z,98596.04
2019-05-11T10:16:33.205Z,98600.34
2019-05-11T10:19:01.421Z,98603.91
2019-05-11T10:21:29.623Z,98604.66
2019-05-11T10:23:58.097Z,98604.19
2019-05-11T10:26:27.897Z,98604.36
2019-05-11T10:28:58.312Z,98604.89
2019-05-11T10:31:28.535Z,98608.13
2019-05-11T10:36:15.604Z,98616.24
2019-05-11T10:38:43.849Z,98622.52
2019-05-11T10:41:12.072Z,98627.59
2019-05-11T10:43:40.284Z,98628.30
2019-05-11T10:46:16.946Z,98629.86
2019-05-11T10:48:39.024Z,98630.58
2019-05-11T10:51:08.270Z,98632.17
2019-05-11T10:53:38.439Z,98637.75
2019-05-11T10:56:08.563Z,98644.91
2019-05-11T10:58:37.911Z,98644.33
2019-05-11T11:01:08.628Z,98642.66
2019-05-11T11:03:37.738Z,98650.77
2019-05-11T11:06:08.289Z,98655.61
2019-05-11T11:08:38.119Z,98658.06
2019-05-11T11:11:08.053Z,98652.57
2019-05-11T11:13:35.828Z,98654.86
2019-05-11T11:16:04.106Z,98664.96
2019-05-11T11:18:32.299Z,98669.99
2019-05-11T11:21:00.555Z,98667.86
2019-05-11T11:23:28.762Z,98670.13
2019-05-11T11:25:58.577Z,98674.41
2019-05-11T11:28:28.006Z,98679.83
2019-05-11T11:30:58.295Z,98690.39
2019-05-11T11:33:27.701Z,98689.94
2019-05-11T11:35:57.950Z,98702.92
2019-05-11T11:38:28.059Z,98702.52
2019-05-11T11:40:55.789Z,98710.95
2019-05-11T11:43:24.093Z,98709.02
2019-05-11T11:45:52.260Z,98705.64
2019-05-11T11:48:20.472Z,98703.98
2019-05-11T11:50:48.955Z,98707.28
2019-05-11T11:53:18.834Z,98718.50
2019-05-11T11:55:48.190Z,98718.45
2019-05-11T11:58:22.660Z,98722.06
2019-05-11T12:00:48.229Z,98730.45
2019-05-11T12:03:18.540Z,98729.70
2019-05-11T12:05:47.741Z,98732.71
2019-05-11T12:08:16.106Z,98735.65
2019-05-11T12:10:44.304Z,98743.10
2019-05-11T12:13:12.565Z,98737.31
2019-05-11T12:15:40.781Z,98738.30
2019-05-11T12:18:08.974Z,98742.14
2019-05-11T12:20:38.902Z,98749.70
2019-05-11T12:23:08.733Z,98757.97
2019-05-11T12:25:40.236Z,98759.64
2019-05-11T12:41:08.798Z,98770.19
2019-05-11T12:43:38.191Z,98778.20
2019-05-11T12:46:08.124Z,98784.20
2019-05-11T12:48:37.873Z,98783.39
2019-05-11T12:51:08.043Z,98788.75
2019-05-11T12:53:37.881Z,98789.70
2019-05-11T12:56:08.271Z,98791.10
2019-05-11T12:58:36.112Z,98790.83
2019-05-11T13:01:04.319Z,98784.91
2019-05-11T13:03:32.546Z,98793.42
2019-05-11T13:06:00.750Z,98795.23
2019-05-11T13:08:28.954Z,98791.91
2019-05-11T13:10:58.435Z,98795.47
2019-05-11T13:13:28.562Z,98805.19
2019-05-11T13:15:58.560Z,98801.34
2019-05-11T13:18:27.927Z,98805.44
2019-05-11T13:20:58.595Z,98812.90
2019-05-11T13:23:27.784Z,98809.98
2019-05-11T13:25:58.359Z,98815.83
2019-05-11T13:28:28.235Z,98819.13
2019-05-11T13:30:58.019Z,98817.57
2019-05-11T13:33:27.822Z,98813.85
2019-05-11T13:35:57.836Z,98818.50
2019-05-11T13:38:28.119Z,98826.94
2019-05-11T13:40:55.695Z,98818.55
2019-05-11T13:43:23.908Z,98819.66
2019-05-11T13:45:52.092Z,98823.48
2019-05-11T13:48:20.293Z,98826.64
2019-05-11T13:50:48.487Z,98833.02
2019-05-11T13:53:18.434Z,98834.76
2019-05-11T13:55:48.103Z,98836.88
2019-05-11T13:58:19.466Z,98840.28
2019-05-11T14:00:48.096Z,98841.80
2019-05-11T14:03:18.348Z,98845.58
2019-05-11T14:05:47.897Z,98850.58
2019-05-11T14:08:18.352Z,98862.73
2019-05-11T14:10:46.078Z,98858.73
2019-05-11T14:13:14.281Z,98864.43
2019-05-11T14:15:42.467Z,98859.55
2019-05-11T14:18:12.051Z,98872.20
2019-05-11T14:20:40.340Z,98871.80
2019-05-11T14:23:08.548Z,98872.83
2019-05-11T14:25:38.103Z,98874.84
2019-05-11T14:28:08.887Z,98875.70
2019-05-11T14:30:38.675Z,98879.02
2019-05-11T14:33:08.599Z,98887.17
2019-05-11T14:35:38.371Z,98892.22
2019-05-11T14:38:08.021Z,98892.12
2019-05-11T14:40:38.709Z,98903.44
2019-05-11T14:43:08.371Z,98902.39
2019-05-11T14:45:38.037Z,98911.39
2019-05-11T14:48:22.135Z,98923.59
2019-05-11T14:50:38.448Z,98923.05
2019-05-11T14:53:08.446Z,98919.42
2019-05-11T14:55:38.095Z,98927.09
2019-05-11T14:58:09.168Z,98933.08
2019-05-11T15:00:39.216Z,98930.10
2019-05-11T15:03:07.892Z,98936.57
2019-05-11T15:05:37.609Z,98939.78
2019-05-11T15:08:06.089Z,98945.74
2019-05-11T15:10:34.292Z,98949.83
2019-05-11T15:13:02.504Z,98958.09
2019-05-11T15:15:30.703Z,98965.37
2019-05-11T15:17:58.912Z,98972.14
2019-05-11T15:20:28.451Z,98968.80
2019-05-11T15:22:58.133Z,98969.11
2019-05-11T15:25:28.651Z,98964.48
2019-05-11T15:27:58.125Z,98975.70
2019-05-11T15:30:28.534Z,98968.73
2019-05-11T15:32:58.065Z,98971.28
2019-05-11T15:35:28.282Z,98967.28
2019-05-11T15:37:58.055Z,98972.59
2019-05-11T15:40:27.833Z,98978.50
2019-05-11T15:42:58.340Z,98989.13
2019-05-11T15:45:27.703Z,98984.52
2019-05-11T15:47:56.154Z,98993.95
2019-05-11T15:50:24.400Z,99008.84
2019-05-11T15:52:52.586Z,99008.84
2019-05-11T15:55:22.429Z,99017.22
2019-05-11T15:57:50.622Z,99026.13
2019-05-11T16:00:18.872Z,99027.73
2019-05-11T16:02:49.039Z,99034.16
2019-05-11T16:05:18.194Z,99036.56
2019-05-11T16:07:48.903Z,99035.77
2019-05-11T16:10:18.820Z,99042.17
2019-05-11T16:12:48.571Z,99049.34
2019-05-11T16:15:19.105Z,99048.60
2019-05-11T16:17:48.759Z,99053.80
2019-05-11T16:20:18.122Z,99050.23
2019-05-11T16:22:47.945Z,99059.03
2019-05-11T16:25:19.287Z,99060.27
2019-05-11T16:27:46.295Z,99059.94
2019-05-11T16:30:14.501Z,99071.41
2019-05-11T16:32:42.706Z,99070.74
2019-05-11T16:35:10.911Z,99075.73
2019-05-11T16:37:39.099Z,99078.09
2019-05-11T16:40:07.774Z,99082.09
2019-05-11T16:42:38.293Z,99088.11
2019-05-11T16:45:08.480Z,99094.14
2019-05-11T16:47:38.935Z,99095.41
2019-05-11T16:50:08.519Z,99094.30
2019-05-11T16:52:38.624Z,99107.05
2019-05-11T16:55:07.870Z,99115.50
2019-05-11T16:57:38.211Z,99125.95
2019-05-11T17:00:08.813Z,99131.64
2019-05-11T17:02:38.210Z,99133.13
2019-05-11T17:05:07.855Z,99131.06
2019-05-11T17:07:37.685Z,99124.17
2019-05-11T17:10:08.320Z,99124.17
2019-05-11T17:12:38.746Z,99131.97
2019-05-11T17:15:09.797Z,99138.07
2019-05-11T17:17:38.002Z,99148.52
2019-05-11T17:20:08.055Z,99162.86
2019-05-11T17:22:38.737Z,99166.70
2019-05-11T17:25:08.558Z,99171.08
2019-05-11T17:27:37.721Z,99166.41
2019-05-11T17:30:08.822Z,99165.30
2019-05-11T17:32:38.270Z,99161.63
2019-05-11T17:35:08.464Z,99172.10
2019-05-11T17:37:38.026Z,99175.24
2019-05-11T17:40:08.998Z,99182.55
2019-05-11T17:42:37.822Z,99197.73
2019-05-11T17:45:08.114Z,99194.45
2019-05-11T17:47:38.694Z,99200.09
2019-05-11T17:50:08.161Z,99200.96
2019-05-11T17:52:38.424Z,99200.59
2019-05-11T17:55:07.007Z,99196.75
2019-05-11T17:57:35.202Z,99196.62
2019-05-11T18:00:05.124Z,99210.20
2019-05-11T18:02:33.316Z,99222.43
2019-05-11T18:05:01.522Z,99236.50
2019-05-11T18:07:30.920Z,99230.77
2019-05-11T18:09:59.403Z,99243.67
2019-05-11T18:12:28.555Z,99248.55
2019-05-11T18:14:58.543Z,99245.95
2019-05-11T18:17:26.848Z,99247.72
2019-05-11T18:19:55.041Z,99252.41
2019-05-11T18:22:23.243Z,99255.13
2019-05-11T18:24:51.450Z,99258.62
2019-05-11T18:27:19.642Z,99266.59
2019-05-11T18:29:48.561Z,99267.66
2019-05-11T18:32:16.938Z,99271.39
2019-05-11T18:34:45.127Z,99270.22
2019-05-11T18:37:13.357Z,99276.70
2019-05-11T18:39:41.617Z,99277.57
2019-05-11T18:42:09.834Z,99280.62
2019-05-11T18:44:38.102Z,99291.03
2019-05-11T18:47:08.656Z,99302.09
2019-05-11T18:49:38.200Z,99307.86
2019-05-11T18:52:08.209Z,99301.02
2019-05-11T18:54:38.368Z,99303.59
2019-05-11T18:57:08.131Z,99309.88
2019-05-11T18:59:37.840Z,99310.89
2019-05-11T19:02:08.237Z,99315.61
2019-05-11T19:04:38.037Z,99315.69
2019-05-11T19:07:14.253Z,99314.81
2019-05-11T19:09:37.449Z,99322.05
2019-05-11T19:12:05.548Z,99328.34
2019-05-11T19:14:33.740Z,99332.95
2019-05-11T19:17:01.955Z,99331.47
2019-05-11T19:19:30.138Z,99331.88
2019-05-11T19:21:58.764Z,99330.45
2019-05-11T19:24:27.784Z,99331.02
2019-05-11T19:26:58.702Z,99339.48
2019-05-11T19:29:28.190Z,99342.25
2019-05-11T19:31:58.043Z,99342.08
2019-05-11T19:34:27.995Z,99344.47
2019-05-11T19:36:57.960Z,99344.53
2019-05-11T19:39:27.905Z,99346.94
2019-05-11T19:41:57.989Z,99351.79
2019-05-11T19:44:27.845Z,99357.97
2019-05-11T19:46:55.642Z,99357.66
2019-05-11T19:49:23.839Z,99357.43
2019-05-11T19:51:52.056Z,99360.94
2019-05-11T19:54:20.251Z,99374.05
2019-05-11T19:56:51.779Z,99373.25
2019-05-11T19:59:18.385Z,99379.33
2019-05-11T20:01:46.597Z,99384.60
2019-05-11T20:04:14.785Z,99390.39
2019-05-11T20:06:42.998Z,99392.09
2019-05-11T20:09:11.198Z,99399.56
2019-05-11T20:11:39.400Z,99404.30
2019-05-11T20:14:08.135Z,99403.61
2019-05-11T20:16:36.488Z,99403.31
2019-05-11T20:19:04.674Z,99406.05
2019-05-11T20:21:32.889Z,99401.13
2019-05-11T20:24:01.096Z,99405.62
2019-05-11T20:26:29.286Z,99418.89
2019-05-11T20:28:58.799Z,99422.33
2019-05-11T20:31:27.704Z,99427.57
2019-05-11T20:33:56.063Z,99430.41
2019-05-11T20:36:24.257Z,99428.34
2019-05-11T20:38:52.460Z,99437.28
2019-05-11T20:41:20.649Z,99437.81
2019-05-11T20:43:48.854Z,99449.78
2019-05-11T20:46:18.472Z,99444.96
2019-05-11T20:48:48.534Z,99443.81
2019-05-11T20:51:32.761Z,99446.36
2019-05-11T20:53:48.839Z,99445.95
2019-05-11T20:56:17.838Z,99456.67
2019-05-11T20:58:59.509Z,99462.83
2019-05-11T21:01:28.879Z,99469.48
2019-05-11T21:03:58.513Z,99470.13
2019-05-11T21:06:29.347Z,99471.09
2019-05-11T21:08:56.997Z,99469.88
2019-05-11T21:11:25.145Z,99472.98
2019-05-11T21:13:53.355Z,99472.51
2019-05-11T21:16:21.629Z,99471.58
2019-05-11T21:18:49.853Z,99470.42
2019-05-11T21:21:18.061Z,99477.58
2019-05-11T21:23:48.655Z,99479.77
2019-05-11T21:26:18.674Z,99478.13
2019-05-11T21:28:48.530Z,99477.34
2019-05-11T21:31:18.404Z,99477.86
2019-05-11T21:33:46.083Z,99483.52
2019-05-11T21:36:14.284Z,99488.91
2019-05-11T21:38:42.503Z,99507.00
2019-05-11T21:41:10.730Z,99503.05
2019-05-11T21:43:38.949Z,99504.33
2019-05-11T21:46:08.145Z,99510.84
2019-05-11T21:48:38.472Z,99514.77
2019-05-11T21:51:08.517Z,99531.80
2019-05-11T21:53:38.200Z,99546.88
2019-05-11T21:56:08.122Z,99542.66
2019-05-11T21:58:37.770Z,99547.45
2019-05-11T22:01:06.231Z,99550.50
2019-05-11T22:03:34.454Z,99557.16
2019-05-11T22:06:02.645Z,99561.53
2019-05-11T22:08:30.868Z,99561.48
2019-05-11T22:11:00.024Z,99572.41
2019-05-11T22:13:28.890Z,99571.52
2019-05-11T22:15:58.098Z,99586.44
2019-05-11T22:18:30.819Z,99593.01
2019-05-11T22:20:57.984Z,99604.80
2019-05-11T22:23:28.206Z,99603.91
2019-05-11T22:25:58.710Z,99603.45
2019-05-11T22:28:28.452Z,99618.81
2019-05-11T22:30:56.422Z,99627.59
2019-05-11T22:33:24.627Z,99627.59
2019-05-11T22:35:52.839Z,99626.79
2019-05-11T22:38:21.104Z,99635.59
2019-05-11T22:40:49.331Z,99636.52
2019-05-11T22:43:18.168Z,99641.41
2019-05-11T22:45:48.530Z,99646.27
2019-05-11T22:48:16.457Z,99652.98
2019-05-11T22:50:44.663Z,99663.61
2019-05-11T22:53:12.863Z,99657.03
2019-05-11T22:55:41.080Z,99651.37
2019-05-11T22:58:09.282Z,99655.78
2019-05-11T23:00:39.797Z,99662.58
2019-05-11T23:03:10.796Z,99663.91
2019-05-11T23:05:38.353Z,99677.83
2019-05-11T23:08:07.653Z,99669.22
2019-05-11T23:10:36.063Z,99671.92
2019-05-11T23:13:04.259Z,99674.13
2019-05-11T23:15:32.466Z,99678.93
2019-05-11T23:18:00.667Z,99678.44
2019-05-11T23:20:30.198Z,99679.73
2019-05-11T23:23:01.505Z,99681.92
2019-05-11T23:25:28.846Z,99686.89
2019-05-11T23:27:58.743Z,99692.52
2019-05-11T23:30:28.062Z,99699.09
2019-05-11T23:32:58.590Z,99698.65
2019-05-11T23:35:28.434Z,99703.98
2019-05-11T23:37:58.085Z,99710.11
2019-05-11T23:40:28.398Z,99716.69
2019-05-11T23:42:57.880Z,99721.07
2019-05-11T23:45:27.940Z,99719.77
2019-05-11T23:47:56.114Z,99728.94
2019-05-11T23:50:24.318Z,99727.64
2019-05-11T23:53:05.384Z,99739.11
2019-05-11T23:55:22.442Z,99741.31
2019-05-11T23:57:50.648Z,99743.16
